Saint James, Maryland
Current Conditions -  °F | °C
As of 12:53 AM on Tuesday 21 Oct 2014 (Local Time) from KHGR Reporting Station
Broken Clouds Broken Clouds  
Wind Chill: 53°   Ceiling: 11000
Heat Index: 53°   Visibility: 10mi
Dew Point: 48°   Wind: 6mph
Humidity: 83%   Direction: 110°ESE
Pressure: 29.89"   Gusts: NA
Location:  39.56°N, 77.76°W
Report Text: KHGR 210453Z AUTO 11005KT 10SM BKN110 12/09 A2989 RMK AO2 SLP131 T01170089 401610033
Loading
Personal Weather Stations






























Interactive Weather Map
Tropical Storm Tracking
New forecast layout! Learn more

10-Day Weather Forecast

Advertisements
Track Severe Weather on mobile